sensor_id;sensor_type;location;lat;lon;timestamp;pressure;altitude;pressure_sealevel;temperature;humidity
25526;BME280;13424;48.424;11.258;2023-04-29T00:00:38;95284.06;;;13.35;88.76
25526;BME280;13424;48.424;11.258;2023-04-29T00:03:04;95292.44;;;13.64;87.04
25526;BME280;13424;48.424;11.258;2023-04-29T00:05:30;95288.97;;;13.79;85.92
25526;BME280;13424;48.424;11.258;2023-04-29T00:07:56;95281.44;;;13.81;85.07
25526;BME280;13424;48.424;11.258;2023-04-29T00:10:31;95294.34;;;13.99;83.75
25526;BME280;13424;48.424;11.258;2023-04-29T00:12:57;95288.19;;;14.09;83.19
25526;BME280;13424;48.424;11.258;2023-04-29T00:15:23;95279.06;;;14.15;82.76
25526;BME280;13424;48.424;11.258;2023-04-29T00:17:49;95284.13;;;14.21;82.52
25526;BME280;13424;48.424;11.258;2023-04-29T00:20:15;95284.66;;;14.13;82.60
25526;BME280;13424;48.424;11.258;2023-04-29T00:22:41;95284.41;;;13.89;82.29
25526;BME280;13424;48.424;11.258;2023-04-29T00:25:07;95279.84;;;14.05;82.74
25526;BME280;13424;48.424;11.258;2023-04-29T00:27:33;95283.63;;;14.14;82.27
25526;BME280;13424;48.424;11.258;2023-04-29T00:29:59;95274.50;;;14.15;82.31
25526;BME280;13424;48.424;11.258;2023-04-29T00:32:25;95271.81;;;14.15;82.54
25526;BME280;13424;48.424;11.258;2023-04-29T00:34:51;95271.81;;;14.05;82.75
25526;BME280;13424;48.424;11.258;2023-04-29T00:37:17;95272.34;;;14.07;82.67
25526;BME280;13424;48.424;11.258;2023-04-29T00:39:42;95267.53;;;14.09;83.17
25526;BME280;13424;48.424;11.258;2023-04-29T00:42:08;95275.28;;;14.06;83.58
25526;BME280;13424;48.424;11.258;2023-04-29T00:44:35;95276.63;;;14.18;83.08
25526;BME280;13424;48.424;11.258;2023-04-29T00:47:01;95279.84;;;14.25;82.63
25526;BME280;13424;48.424;11.258;2023-04-29T00:49:27;95276.63;;;14.39;82.37
25526;BME280;13424;48.424;11.258;2023-04-29T00:51:54;95286.78;;;14.42;82.59
25526;BME280;13424;48.424;11.258;2023-04-29T00:54:26;95277.66;;;14.43;83.41
25526;BME280;13424;48.424;11.258;2023-04-29T00:56:52;95273.66;;;14.40;83.14
25526;BME280;13424;48.424;11.258;2023-04-29T00:59:19;95282.00;;;14.49;83.01
25526;BME280;13424;48.424;11.258;2023-04-29T01:01:45;95282.53;;;14.46;83.51
25526;BME280;13424;48.424;11.258;2023-04-29T01:04:12;95280.88;;;14.45;83.00
25526;BME280;13424;48.424;11.258;2023-04-29T01:07:08;95291.91;;;14.38;84.40
25526;BME280;13424;48.424;11.258;2023-04-29T01:10:08;95288.41;;;14.58;83.67
25526;BME280;13424;48.424;11.258;2023-04-29T01:15:48;95285.97;;;14.67;83.12
25526;BME280;13424;48.424;11.258;2023-04-29T01:18:46;95293.81;;;14.48;83.44
25526;BME280;13424;48.424;11.258;2023-04-29T01:21:17;95286.56;;;14.54;82.81
25526;BME280;13424;48.424;11.258;2023-04-29T01:23:43;95290.03;;;14.34;84.21
25526;BME280;13424;48.424;11.258;2023-04-29T01:26:10;95286.00;;;14.41;83.73
25526;BME280;13424;48.424;11.258;2023-04-29T01:29:27;95283.03;;;14.63;83.16
25526;BME280;13424;48.424;11.258;2023-04-29T01:32:07;95281.69;;;14.71;82.81
25526;BME280;13424;48.424;11.258;2023-04-29T01:34:53;95291.63;;;14.65;83.05
25526;BME280;13424;48.424;11.258;2023-04-29T01:37:48;95288.69;;;14.51;83.63
25526;BME280;13424;48.424;11.258;2023-04-29T01:40:39;95286.28;;;14.40;83.75
25526;BME280;13424;48.424;11.258;2023-04-29T01:43:13;95284.13;;;14.21;84.11
25526;BME280;13424;48.424;11.258;2023-04-29T01:45:44;95288.69;;;14.31;84.42
25526;BME280;13424;48.424;11.258;2023-04-29T01:48:10;95284.94;;;14.17;85.01
25526;BME280;13424;48.424;11.258;2023-04-29T01:50:37;95291.38;;;14.31;84.09
25526;BME280;13424;48.424;11.258;2023-04-29T01:53:11;95285.19;;;14.51;83.36
25526;BME280;13424;48.424;11.258;2023-04-29T01:55:37;95280.38;;;14.48;82.75
25526;BME280;13424;48.424;11.258;2023-04-29T01:58:24;95287.34;;;14.49;82.70
25526;BME280;13424;48.424;11.258;2023-04-29T02:00:59;95281.47;;;14.16;84.50
25526;BME280;13424;48.424;11.258;2023-04-29T02:03:29;95283.59;;;14.24;82.93
25526;BME280;13424;48.424;11.258;2023-04-29T02:05:56;95281.97;;;14.29;82.77
25526;BME280;13424;48.424;11.258;2023-04-29T02:08:23;95284.94;;;14.27;83.03
25526;BME280;13424;48.424;11.258;2023-04-29T02:10:55;95278.50;;;14.38;82.88
25526;BME280;13424;48.424;11.258;2023-04-29T02:13:38;95285.75;;;14.48;82.84
25526;BME280;13424;48.424;11.258;2023-04-29T02:16:13;95288.41;;;14.28;83.16
25526;BME280;13424;48.424;11.258;2023-04-29T02:18:49;95287.63;;;14.32;84.24
25526;BME280;13424;48.424;11.258;2023-04-29T02:21:15;95287.59;;;14.42;83.42
25526;BME280;13424;48.424;11.258;2023-04-29T02:23:41;95286.81;;;14.52;82.62
25526;BME280;13424;48.424;11.258;2023-04-29T02:26:06;95292.16;;;14.52;83.51
25526;BME280;13424;48.424;11.258;2023-04-29T02:28:34;95283.34;;;14.46;83.72
25526;BME280;13424;48.424;11.258;2023-04-29T02:30:59;95283.59;;;14.40;82.96
25526;BME280;13424;48.424;11.258;2023-04-29T02:33:25;95287.59;;;14.58;83.63
25526;BME280;13424;48.424;11.258;2023-04-29T02:35:51;95287.88;;;14.51;83.99
25526;BME280;13424;48.424;11.258;2023-04-29T02:38:17;95285.75;;;14.48;84.36
25526;BME280;13424;48.424;11.258;2023-04-29T02:40:44;95282.25;;;14.47;84.13
25526;BME280;13424;48.424;11.258;2023-04-29T02:43:10;95283.59;;;14.24;85.32
25526;BME280;13424;48.424;11.258;2023-04-29T02:45:37;95288.44;;;14.33;83.54
25526;BME280;13424;48.424;11.258;2023-04-29T02:48:06;95287.91;;;14.25;82.90
25526;BME280;13424;48.424;11.258;2023-04-29T02:50:32;95282.78;;;14.19;81.67
25526;BME280;13424;48.424;11.258;2023-04-29T02:52:59;95289.50;;;13.81;82.90
25526;BME280;13424;48.424;11.258;2023-04-29T02:55:25;95294.63;;;14.08;83.01
25526;BME280;13424;48.424;11.258;2023-04-29T02:57:52;95295.94;;;14.25;82.90
25526;BME280;13424;48.424;11.258;2023-04-29T03:00:18;95297.81;;;14.05;84.90
25526;BME280;13424;48.424;11.258;2023-04-29T03:02:44;95295.41;;;14.23;84.57
25526;BME280;13424;48.424;11.258;2023-04-29T03:05:09;95295.41;;;14.03;85.77
25526;BME280;13424;48.424;11.258;2023-04-29T03:07:36;95294.88;;;14.11;85.92
25526;BME280;13424;48.424;11.258;2023-04-29T03:10:02;95297.00;;;14.24;84.97
25526;BME280;13424;48.424;11.258;2023-04-29T03:12:28;95301.31;;;14.15;85.61
25526;BME280;13424;48.424;11.258;2023-04-29T03:14:54;95297.84;;;14.15;85.21
25526;BME280;13424;48.424;11.258;2023-04-29T03:17:22;95296.50;;;14.07;86.54
25526;BME280;13424;48.424;11.258;2023-04-29T03:19:48;95293.25;;;14.36;84.45
25526;BME280;13424;48.424;11.258;2023-04-29T03:22:13;95291.91;;;14.18;84.18
25526;BME280;13424;48.424;11.258;2023-04-29T03:24:41;95291.09;;;14.28;83.85
25526;BME280;13424;48.424;11.258;2023-04-29T03:27:07;95295.38;;;14.29;83.39
25526;BME280;13424;48.424;11.258;2023-04-29T03:29:33;95293.53;;;14.19;82.75
25526;BME280;13424;48.424;11.258;2023-04-29T03:31:59;95291.91;;;14.18;83.42
25526;BME280;13424;48.424;11.258;2023-04-29T03:34:34;95280.13;;;14.04;82.61
25526;BME280;13424;48.424;11.258;2023-04-29T03:37:20;95284.41;;;13.94;85.11
25526;BME280;13424;48.424;11.258;2023-04-29T03:39:52;95288.44;;;14.12;85.08
25526;BME280;13424;48.424;11.258;2023-04-29T03:42:18;95294.31;;;14.19;85.17
25526;BME280;13424;48.424;11.258;2023-04-29T03:44:44;95293.50;;;14.29;84.39
25526;BME280;13424;48.424;11.258;2023-04-29T03:47:10;95281.97;;;14.29;84.22
25526;BME280;13424;48.424;11.258;2023-04-29T03:49:45;95290.56;;;14.20;85.08
25526;BME280;13424;48.424;11.258;2023-04-29T03:52:11;95285.19;;;14.41;84.46
25526;BME280;13424;48.424;11.258;2023-04-29T03:54:37;95289.50;;;14.27;86.13
25526;BME280;13424;48.424;11.258;2023-04-29T03:57:03;95285.75;;;14.02;87.28
25526;BME280;13424;48.424;11.258;2023-04-29T03:59:29;95294.31;;;14.30;86.34
25526;BME280;13424;48.424;11.258;2023-04-29T04:01:55;95285.44;;;14.44;85.69
25526;BME280;13424;48.424;11.258;2023-04-29T04:04:21;95294.06;;;14.26;86.55
25526;BME280;13424;48.424;11.258;2023-04-29T04:06:49;95296.47;;;14.53;85.07
25526;BME280;13424;48.424;11.258;2023-04-29T04:09:17;95298.59;;;14.36;85.46
25526;BME280;13424;48.424;11.258;2023-04-29T04:11:44;95289.19;;;14.43;85.62
25526;BME280;13424;48.424;11.258;2023-04-29T04:14:10;95296.97;;;14.45;85.16
25526;BME280;13424;48.424;11.258;2023-04-29T04:16:36;95299.66;;;14.45;85.43
25526;BME280;13424;48.424;11.258;2023-04-29T04:19:02;95295.13;;;14.40;85.54
25526;BME280;13424;48.424;11.258;2023-04-29T04:21:30;95300.78;;;14.23;86.07
25526;BME280;13424;48.424;11.258;2023-04-29T04:24:03;95301.84;;;14.48;85.27
25526;BME280;13424;48.424;11.258;2023-04-29T04:26:29;95308.53;;;14.45;85.60
25526;BME280;13424;48.424;11.258;2023-04-29T04:29:01;95307.19;;;14.58;85.04
25526;BME280;13424;48.424;11.258;2023-04-29T04:31:53;95312.56;;;14.53;85.06
25526;BME280;13424;48.424;11.258;2023-04-29T04:34:20;95311.72;;;14.68;85.15
25526;BME280;13424;48.424;11.258;2023-04-29T04:36:49;95314.16;;;14.69;85.05
25526;BME280;13424;48.424;11.258;2023-04-29T04:39:16;95314.16;;;14.69;84.87
25526;BME280;13424;48.424;11.258;2023-04-29T04:41:41;95317.13;;;14.58;85.54
25526;BME280;13424;48.424;11.258;2023-04-29T04:44:07;95318.97;;;14.67;85.27
25526;BME280;13424;48.424;11.258;2023-04-29T04:46:40;95320.53;;;14.89;84.22
25526;BME280;13424;48.424;11.258;2023-04-29T04:49:13;95327.75;;;14.98;83.90
25526;BME280;13424;48.424;11.258;2023-04-29T04:51:45;95315.69;;;14.96;83.46
25526;BME280;13424;48.424;11.258;2023-04-29T04:54:12;95327.03;;;14.77;84.63
25526;BME280;13424;48.424;11.258;2023-04-29T04:56:38;95333.19;;;14.73;85.55
25526;BME280;13424;48.424;11.258;2023-04-29T04:59:05;95330.78;;;14.66;86.46
25526;BME280;13424;48.424;11.258;2023-04-29T05:01:34;95334.56;;;14.60;87.51
25526;BME280;13424;48.424;11.258;2023-04-29T05:03:59;95334.56;;;14.35;89.52
25526;BME280;13424;48.424;11.258;2023-04-29T05:06:27;95336.22;;;14.46;89.48
25526;BME280;13424;48.424;11.258;2023-04-29T05:13:00;95346.34;;;14.79;88.91
25526;BME280;13424;48.424;11.258;2023-04-29T05:15:26;95350.13;;;14.78;89.50
25526;BME280;13424;48.424;11.258;2023-04-29T05:17:54;95355.41;;;14.99;88.73
25526;BME280;13424;48.424;11.258;2023-04-29T05:20:20;95359.16;;;15.08;88.12
25526;BME280;13424;48.424;11.258;2023-04-29T05:22:47;95354.38;;;14.95;89.26
25526;BME280;13424;48.424;11.258;2023-04-29T05:25:13;95358.44;;;14.67;90.27
25526;BME280;13424;48.424;11.258;2023-04-29T05:27:39;95364.59;;;14.83;90.02
25526;BME280;13424;48.424;11.258;2023-04-29T05:30:09;95372.06;;;15.11;89.20
25526;BME280;13424;48.424;11.258;2023-04-29T05:32:35;95371.66;;;15.43;87.96
25526;BME280;13424;48.424;11.258;2023-04-29T05:35:02;95372.88;;;15.01;89.32
25526;BME280;13424;48.424;11.258;2023-04-29T05:37:28;95384.69;;;15.11;89.77
25526;BME280;13424;48.424;11.258;2023-04-29T05:40:03;95382.75;;;15.16;89.11
25526;BME280;13424;48.424;11.258;2023-04-29T05:42:30;95384.41;;;15.17;89.62
25526;BME280;13424;48.424;11.258;2023-04-29T05:45:51;95377.31;;;15.42;88.23
25526;BME280;13424;48.424;11.258;2023-04-29T05:48:17;95395.84;;;15.38;88.77
25526;BME280;13424;48.424;11.258;2023-04-29T05:50:43;95387.31;;;15.16;90.23
25526;BME280;13424;48.424;11.258;2023-04-29T05:53:10;95390.47;;;15.48;89.32
25526;BME280;13424;48.424;11.258;2023-04-29T05:55:38;95388.53;;;15.64;88.62
25526;BME280;13424;48.424;11.258;2023-04-29T05:58:05;95391.19;;;15.74;87.95
25526;BME280;13424;48.424;11.258;2023-04-29T06:00:31;95386.41;;;15.61;88.86
25526;BME280;13424;48.424;11.258;2023-04-29T06:03:05;95395.53;;;15.65;89.19
25526;BME280;13424;48.424;11.258;2023-04-29T06:05:31;95392.69;;;15.90;88.53
25526;BME280;13424;48.424;11.258;2023-04-29T06:08:08;95405.03;;;15.97;88.27
25526;BME280;13424;48.424;11.258;2023-04-29T06:10:52;95403.00;;;16.17;87.30
25526;BME280;13424;48.424;11.258;2023-04-29T06:13:19;95399.78;;;15.71;89.07
25526;BME280;13424;48.424;11.258;2023-04-29T06:15:45;95417.28;;;15.69;89.29
25526;BME280;13424;48.424;11.258;2023-04-29T06:18:13;95412.63;;;15.89;88.35
25526;BME280;13424;48.424;11.258;2023-04-29T06:20:38;95416.84;;;15.96;88.55
25526;BME280;13424;48.424;11.258;2023-04-29T06:26:42;95422.81;;;16.76;85.68
25526;BME280;13424;48.424;11.258;2023-04-29T06:29:08;95427.84;;;17.12;85.25
25526;BME280;13424;48.424;11.258;2023-04-29T06:31:35;95430.19;;;17.23;84.62
25526;BME280;13424;48.424;11.258;2023-04-29T06:34:02;95429.25;;;17.33;83.08
25526;BME280;13424;48.424;11.258;2023-04-29T06:36:29;95435.13;;;17.64;82.86
25526;BME280;13424;48.424;11.258;2023-04-29T06:39:14;95430.94;;;17.77;82.26
25526;BME280;13424;48.424;11.258;2023-04-29T06:42:06;95437.66;;;17.79;83.36
25526;BME280;13424;48.424;11.258;2023-04-29T06:44:41;95428.59;;;18.32;80.11
25526;BME280;13424;48.424;11.258;2023-04-29T06:47:27;95429.03;;;18.01;79.87
25526;BME280;13424;48.424;11.258;2023-04-29T06:50:03;95428.22;;;18.20;79.73
25526;BME280;13424;48.424;11.258;2023-04-29T06:52:29;95424.44;;;18.21;79.68
25526;BME280;13424;48.424;11.258;2023-04-29T06:54:55;95428.59;;;17.94;81.32
25526;BME280;13424;48.424;11.258;2023-04-29T06:57:21;95424.72;;;18.19;79.29
25526;BME280;13424;48.424;11.258;2023-04-29T06:59:47;95429.47;;;18.27;79.74
25526;BME280;13424;48.424;11.258;2023-04-29T07:02:13;95428.28;;;18.52;79.31
25526;BME280;13424;48.424;11.258;2023-04-29T07:04:39;95428.78;;;18.17;80.35
25526;BME280;13424;48.424;11.258;2023-04-29T07:07:05;95432.66;;;18.48;79.30
25526;BME280;13424;48.424;11.258;2023-04-29T07:09:33;95437.19;;;18.72;79.01
25526;BME280;13424;48.424;11.258;2023-04-29T07:16:13;95435.44;;;19.13;78.90
25526;BME280;13424;48.424;11.258;2023-04-29T07:18:39;95432.19;;;19.11;79.22
25526;BME280;13424;48.424;11.258;2023-04-29T07:21:05;95435.81;;;18.18;79.78
25526;BME280;13424;48.424;11.258;2023-04-29T07:23:32;95438.72;;;19.10;77.35
25526;BME280;13424;48.424;11.258;2023-04-29T07:25:58;95436.88;;;18.92;80.08
25526;BME280;13424;48.424;11.258;2023-04-29T07:28:24;95434.13;;;18.59;76.45
25526;BME280;13424;48.424;11.258;2023-04-29T07:30:51;95432.09;;;18.51;76.85
25526;BME280;13424;48.424;11.258;2023-04-29T07:33:18;95432.09;;;18.51;78.63
25526;BME280;13424;48.424;11.258;2023-04-29T07:35:44;95441.56;;;18.30;78.43
25526;BME280;13424;48.424;11.258;2023-04-29T07:38:12;95444.06;;;17.83;80.68
25526;BME280;13424;48.424;11.258;2023-04-29T07:40:38;95445.81;;;18.36;78.42
25526;BME280;13424;48.424;11.258;2023-04-29T07:43:04;95443.13;;;18.74;77.40
25526;BME280;13424;48.424;11.258;2023-04-29T07:45:31;95451.88;;;18.28;79.73
25526;BME280;13424;48.424;11.258;2023-04-29T07:47:57;95445.22;;;18.39;78.68
25526;BME280;13424;48.424;11.258;2023-04-29T07:50:23;95451.53;;;19.05;75.99
25526;BME280;13424;48.424;11.258;2023-04-29T07:52:48;95435.94;;;17.41;78.74
25526;BME280;13424;48.424;11.258;2023-04-29T07:55:16;95447.97;;;17.48;79.05
25526;BME280;13424;48.424;11.258;2023-04-29T07:57:42;95458.13;;;17.56;79.09
25526;BME280;13424;48.424;11.258;2023-04-29T08:00:08;95460.06;;;17.80;77.22
25526;BME280;13424;48.424;11.258;2023-04-29T08:07:03;95465.22;;;19.41;74.56
25526;BME280;13424;48.424;11.258;2023-04-29T08:09:29;95456.56;;;19.85;74.07
25526;BME280;13424;48.424;11.258;2023-04-29T08:11:54;95450.91;;;19.54;71.82
25526;BME280;13424;48.424;11.258;2023-04-29T08:14:20;95460.34;;;19.10;72.94
25526;BME280;13424;48.424;11.258;2023-04-29T08:16:46;95459.91;;;18.71;73.71
25526;BME280;13424;48.424;11.258;2023-04-29T08:19:12;95452.69;;;18.66;74.96
25526;BME280;13424;48.424;11.258;2023-04-29T08:21:38;95463.19;;;18.67;75.52
25526;BME280;13424;48.424;11.258;2023-04-29T08:24:03;95459.28;;;18.92;73.99
25526;BME280;13424;48.424;11.258;2023-04-29T08:26:30;95462.03;;;19.52;71.99
25526;BME280;13424;48.424;11.258;2023-04-29T08:28:56;95456.03;;;18.77;73.07
25526;BME280;13424;48.424;11.258;2023-04-29T08:31:22;95449.38;;;19.48;71.04
25526;BME280;13424;48.424;11.258;2023-04-29T08:33:48;95462.09;;;18.50;71.44
25526;BME280;13424;48.424;11.258;2023-04-29T08:36:14;95469.13;;;19.02;71.03
25526;BME280;13424;48.424;11.258;2023-04-29T08:38:40;95459.97;;;18.28;74.61
25526;BME280;13424;48.424;11.258;2023-04-29T08:41:08;95460.22;;;19.48;71.94
25526;BME280;13424;48.424;11.258;2023-04-29T08:47:44;95461.63;;;17.57;77.00
25526;BME280;13424;48.424;11.258;2023-04-29T08:50:10;95459.53;;;16.57;78.67
25526;BME280;13424;48.424;11.258;2023-04-29T08:52:36;95453.19;;;18.49;72.87
25526;BME280;13424;48.424;11.258;2023-04-29T08:55:02;95458.38;;;18.27;73.68
25526;BME280;13424;48.424;11.258;2023-04-29T08:57:29;95463.91;;;18.54;72.38
25526;BME280;13424;48.424;11.258;2023-04-29T08:59:58;95463.97;;;18.11;73.51
25526;BME280;13424;48.424;11.258;2023-04-29T09:02:24;95461.16;;;17.79;73.59
25526;BME280;13424;48.424;11.258;2023-04-29T09:05:03;95470.03;;;18.22;74.51
25526;BME280;13424;48.424;11.258;2023-04-29T09:08:01;95473.34;;;19.08;73.33
25526;BME280;13424;48.424;11.258;2023-04-29T09:10:29;95475.00;;;18.72;74.36
25526;BME280;13424;48.424;11.258;2023-04-29T09:12:56;95468.41;;;18.40;71.91
25526;BME280;13424;48.424;11.258;2023-04-29T09:15:22;95477.63;;;18.77;71.99
25526;BME280;13424;48.424;11.258;2023-04-29T09:17:48;95479.16;;;18.45;73.83
25526;BME280;13424;48.424;11.258;2023-04-29T09:22:47;95466.50;;;19.30;69.46
25526;BME280;13424;48.424;11.258;2023-04-29T09:25:14;95468.97;;;20.00;70.59
25526;BME280;13424;48.424;11.258;2023-04-29T09:27:39;95482.88;;;20.21;67.97
25526;BME280;13424;48.424;11.258;2023-04-29T09:30:06;95471.25;;;20.92;67.01
25526;BME280;13424;48.424;11.258;2023-04-29T09:32:32;95464.50;;;20.81;66.54
25526;BME280;13424;48.424;11.258;2023-04-29T09:35:07;95470.41;;;19.51;67.79
25526;BME280;13424;48.424;11.258;2023-04-29T09:37:44;95464.28;;;19.92;67.10
25526;BME280;13424;48.424;11.258;2023-04-29T09:40:33;95457.50;;;19.48;67.12
25526;BME280;13424;48.424;11.258;2023-04-29T09:42:59;95474.41;;;20.63;69.00
25526;BME280;13424;48.424;11.258;2023-04-29T09:45:36;95465.91;;;20.43;66.92
25526;BME280;13424;48.424;11.258;2023-04-29T09:48:06;95467.94;;;21.18;68.67
25526;BME280;13424;48.424;11.258;2023-04-29T09:50:37;95467.00;;;21.23;64.83
25526;BME280;13424;48.424;11.258;2023-04-29T09:53:08;95472.59;;;20.59;66.36
25526;BME280;13424;48.424;11.258;2023-04-29T09:56:01;95479.28;;;20.25;65.29
25526;BME280;13424;48.424;11.258;2023-04-29T09:58:29;95471.47;;;20.10;64.21
25526;BME280;13424;48.424;11.258;2023-04-29T10:00:58;95475.41;;;19.30;64.44
25526;BME280;13424;48.424;11.258;2023-04-29T10:03:32;95467.47;;;19.80;66.04
25526;BME280;13424;48.424;11.258;2023-04-29T10:06:00;95461.25;;;19.79;64.39
25526;BME280;13424;48.424;11.258;2023-04-29T10:08:28;95466.63;;;20.34;63.30
25526;BME280;13424;48.424;11.258;2023-04-29T10:10:59;95475.84;;;19.37;61.68
25526;BME280;13424;48.424;11.258;2023-04-29T10:13:26;95462.69;;;19.91;61.41
25526;BME280;13424;48.424;11.258;2023-04-29T10:16:27;95469.00;;;20.36;61.56
25526;BME280;13424;48.424;11.258;2023-04-29T10:18:55;95463.38;;;21.05;58.92
25526;BME280;13424;48.424;11.258;2023-04-29T10:21:29;95463.13;;;20.20;60.48
25526;BME280;13424;48.424;11.258;2023-04-29T10:23:57;95463.81;;;20.98;63.51
25526;BME280;13424;48.424;11.258;2023-04-29T10:26:28;95462.53;;;20.96;61.93
25526;BME280;13424;48.424;11.258;2023-04-29T10:28:58;95472.97;;;20.66;60.26
25526;BME280;13424;48.424;11.258;2023-04-29T10:31:25;95464.59;;;20.40;59.17
25526;BME280;13424;48.424;11.258;2023-04-29T10:33:55;95468.66;;;20.15;60.31
25526;BME280;13424;48.424;11.258;2023-04-29T10:36:23;95471.56;;;20.69;61.95
25526;BME280;13424;48.424;11.258;2023-04-29T10:38:56;95461.47;;;20.83;62.14
25526;BME280;13424;48.424;11.258;2023-04-29T10:41:29;95468.34;;;20.67;61.17
25526;BME280;13424;48.424;11.258;2023-04-29T10:43:58;95469.63;;;20.47;55.86
25526;BME280;13424;48.424;11.258;2023-04-29T10:46:25;95464.84;;;20.16;59.14
25526;BME280;13424;48.424;11.258;2023-04-29T10:49:03;95474.13;;;20.87;60.23
25526;BME280;13424;48.424;11.258;2023-04-29T10:51:43;95469.50;;;21.10;57.92
25526;BME280;13424;48.424;11.258;2023-04-29T10:54:16;95467.19;;;18.89;59.22
25526;BME280;13424;48.424;11.258;2023-04-29T10:56:50;95473.94;;;19.38;58.28
25526;BME280;13424;48.424;11.258;2023-04-29T10:59:43;95469.81;;;20.36;58.18
25526;BME280;13424;48.424;11.258;2023-04-29T11:02:09;95478.31;;;20.94;60.18
25526;BME280;13424;48.424;11.258;2023-04-29T11:05:08;95474.41;;;20.00;57.79
25526;BME280;13424;48.424;11.258;2023-04-29T11:07:34;95470.84;;;20.99;56.53
25526;BME280;13424;48.424;11.258;2023-04-29T11:10:01;95470.03;;;20.76;59.89
25526;BME280;13424;48.424;11.258;2023-04-29T11:12:27;95460.28;;;20.75;60.99
25526;BME280;13424;48.424;11.258;2023-04-29T11:14:53;95473.88;;;19.98;61.25
25526;BME280;13424;48.424;11.258;2023-04-29T11:17:33;95475.75;;;21.73;61.52
25526;BME280;13424;48.424;11.258;2023-04-29T11:19:59;95474.53;;;21.26;59.71
25526;BME280;13424;48.424;11.258;2023-04-29T11:22:27;95472.50;;;21.31;58.32
25526;BME280;13424;48.424;11.258;2023-04-29T11:25:04;95469.97;;;20.68;58.47
25526;BME280;13424;48.424;11.258;2023-04-29T11:27:38;95469.88;;;20.95;59.24
25526;BME280;13424;48.424;11.258;2023-04-29T11:30:06;95470.16;;;21.16;57.57
25526;BME280;13424;48.424;11.258;2023-04-29T11:32:39;95476.13;;;20.46;58.71
25526;BME280;13424;48.424;11.258;2023-04-29T11:35:18;95490.88;;;20.89;58.26
25526;BME280;13424;48.424;11.258;2023-04-29T11:37:45;95482.56;;;20.86;56.81
25526;BME280;13424;48.424;11.258;2023-04-29T11:40:12;95477.31;;;20.89;58.00
25526;BME280;13424;48.424;11.258;2023-04-29T11:42:48;95491.69;;;20.76;56.84
25526;BME280;13424;48.424;11.258;2023-04-29T11:45:17;95487.91;;;21.44;59.71
25526;BME280;13424;48.424;11.258;2023-04-29T11:47:47;95489.16;;;20.94;56.10
25526;BME280;13424;48.424;11.258;2023-04-29T11:50:14;95496.31;;;20.40;55.95
25526;BME280;13424;48.424;11.258;2023-04-29T11:52:42;95484.03;;;20.70;57.41
25526;BME280;13424;48.424;11.258;2023-04-29T11:55:10;95487.47;;;20.34;59.74
25526;BME280;13424;48.424;11.258;2023-04-29T11:57:39;95483.34;;;20.86;57.15
25526;BME280;13424;48.424;11.258;2023-04-29T12:00:09;95481.66;;;20.77;54.60
25526;BME280;13424;48.424;11.258;2023-04-29T12:02:37;95484.50;;;20.08;55.87
25526;BME280;13424;48.424;11.258;2023-04-29T12:05:06;95493.53;;;19.90;58.00
25526;BME280;13424;48.424;11.258;2023-04-29T12:07:36;95484.22;;;21.18;57.38
25526;BME280;13424;48.424;11.258;2023-04-29T12:10:02;95496.41;;;20.84;56.00
25526;BME280;13424;48.424;11.258;2023-04-29T12:12:28;95489.06;;;21.52;55.65
25526;BME280;13424;48.424;11.258;2023-04-29T12:14:56;95489.34;;;21.42;56.25
25526;BME280;13424;48.424;11.258;2023-04-29T12:17:22;95477.56;;;21.86;57.33
25526;BME280;13424;48.424;11.258;2023-04-29T12:19:49;95483.78;;;22.26;55.84
25526;BME280;13424;48.424;11.258;2023-04-29T12:22:16;95495.06;;;23.11;54.32
25526;BME280;13424;48.424;11.258;2023-04-29T12:24:43;95492.16;;;20.92;57.02
25526;BME280;13424;48.424;11.258;2023-04-29T12:27:09;95475.06;;;21.59;53.92
25526;BME280;13424;48.424;11.258;2023-04-29T12:29:36;95475.78;;;20.61;55.88
25526;BME280;13424;48.424;11.258;2023-04-29T12:32:03;95481.19;;;20.11;59.19
25526;BME280;13424;48.424;11.258;2023-04-29T12:34:30;95473.81;;;19.29;60.77
25526;BME280;13424;48.424;11.258;2023-04-29T12:37:00;95472.97;;;19.15;60.95
25526;BME280;13424;48.424;11.258;2023-04-29T12:39:27;95479.75;;;17.99;62.74
25526;BME280;13424;48.424;11.258;2023-04-29T12:42:02;95476.97;;;20.32;59.57
25526;BME280;13424;48.424;11.258;2023-04-29T12:44:35;95486.44;;;20.57;58.48
25526;BME280;13424;48.424;11.258;2023-04-29T12:47:09;95486.28;;;20.40;58.52
25526;BME280;13424;48.424;11.258;2023-04-29T12:49:36;95490.28;;;20.43;58.68
25526;BME280;13424;48.424;11.258;2023-04-29T12:52:03;95482.91;;;20.93;59.26
25526;BME280;13424;48.424;11.258;2023-04-29T12:54:29;95491.03;;;19.79;60.12
25526;BME280;13424;48.424;11.258;2023-04-29T12:56:55;95489.00;;;19.58;60.09
25526;BME280;13424;48.424;11.258;2023-04-29T12:59:21;95496.13;;;19.95;61.15
25526;BME280;13424;48.424;11.258;2023-04-29T13:02:33;95494.28;;;19.16;61.99
25526;BME280;13424;48.424;11.258;2023-04-29T13:04:59;95494.75;;;19.84;61.25
25526;BME280;13424;48.424;11.258;2023-04-29T13:07:26;95504.63;;;19.74;60.38
25526;BME280;13424;48.424;11.258;2023-04-29T13:09:51;95492.72;;;20.30;56.95
25526;BME280;13424;48.424;11.258;2023-04-29T13:12:17;95490.03;;;19.29;60.23
25526;BME280;13424;48.424;11.258;2023-04-29T13:14:43;95491.03;;;20.07;59.04
25526;BME280;13424;48.424;11.258;2023-04-29T13:17:09;95494.28;;;20.59;58.79
25526;BME280;13424;48.424;11.258;2023-04-29T13:19:35;95498.25;;;20.98;58.25
25526;BME280;13424;48.424;11.258;2023-04-29T13:22:04;95489.88;;;20.49;58.21
25526;BME280;13424;48.424;11.258;2023-04-29T13:24:31;95483.72;;;20.07;58.07
25526;BME280;13424;48.424;11.258;2023-04-29T13:26:57;95489.78;;;20.54;61.73
25526;BME280;13424;48.424;11.258;2023-04-29T13:29:23;95490.44;;;20.96;58.80